Time;durP1;ratioP1;P1;durP2;ratioP2;P2;SDS_P1;SDS_P2;PMS_P1;PMS_P2;Temp;Humidity;BMP_temperature;BMP_pressure;BME280_temperature;BME280_humidity;BME280_pressure;Samples;Min_cycle;Max_cycle;Signal;HPM_P1;HPM_P2
2023/12/29 00:02:02;;;;;;;270.67;100.38;;;1.40;99.90;;;;;;4970250;28;20057;-78
2023/12/29 00:04:32;;;;;;;246.65;96.60;;;1.40;99.90;;;;;;4963077;28;20069;-77
2023/12/29 00:07:00;;;;;;;252.95;93.22;;;1.40;99.90;;;;;;4967469;28;20042;-77
2023/12/29 00:09:38;;;;;;;226.32;87.47;;;1.40;99.90;;;;;;4963681;28;20054;-78
2023/12/29 00:12:07;;;;;;;251.10;91.10;;;1.40;99.90;;;;;;4986109;28;20051;-78
2023/12/29 00:14:40;;;;;;;254.38;91.43;;;1.40;99.90;;;;;;4977342;28;20050;-78
2023/12/29 00:17:09;;;;;;;259.52;91.85;;;1.40;99.90;;;;;;4975506;28;20054;-78
2023/12/29 00:19:39;;;;;;;247.77;87.22;;;1.40;99.90;;;;;;4980362;28;20054;-78
2023/12/29 00:22:06;;;;;;;251.60;92.57;;;1.40;99.90;;;;;;4958608;28;20058;-77
2023/12/29 00:24:39;;;;;;;285.63;96.10;;;1.50;99.90;;;;;;4962032;28;20049;-78
2023/12/29 00:27:08;;;;;;;;;;;1.40;99.90;;;;;;4974400;28;20070;-78
2023/12/29 00:29:36;;;;;;;208.07;76.53;;;1.50;99.90;;;;;;4971978;28;19930;-77
2023/12/29 00:32:05;;;;;;;225.90;80.57;;;1.50;99.90;;;;;;4991429;28;20765;-77
2023/12/29 00:34:34;;;;;;;225.02;77.60;;;1.50;99.90;;;;;;4963094;28;20057;-78
2023/12/29 00:37:05;;;;;;;230.05;82.93;;;1.70;99.90;;;;;;4977562;28;20038;-78
2023/12/29 00:39:38;;;;;;;224.48;79.55;;;1.50;99.90;;;;;;4993558;28;20058;-78
2023/12/29 00:42:08;;;;;;;209.57;76.03;;;1.50;99.90;;;;;;4980083;28;20165;-78
2023/12/29 00:44:37;;;;;;;203.82;71.70;;;1.50;99.90;;;;;;4968232;28;20096;-78
2023/12/29 00:47:06;;;;;;;198.05;67.78;;;1.50;99.90;;;;;;4973904;28;20266;-78
2023/12/29 00:49:35;;;;;;;176.80;64.95;;;1.60;99.90;;;;;;4975215;28;20069;-77
2023/12/29 00:52:06;;;;;;;183.68;65.05;;;1.70;99.90;;;;;;4974379;28;20041;-78
2023/12/29 00:54:35;;;;;;;163.15;57.35;;;1.50;99.90;;;;;;4975155;28;20054;-78
2023/12/29 00:57:04;;;;;;;161.85;56.90;;;1.50;99.90;;;;;;4976985;28;20057;-78
2023/12/29 00:59:33;;;;;;;135.95;49.92;;;1.50;99.90;;;;;;4966223;28;20054;-78
2023/12/29 01:02:02;;;;;;;110.10;41.95;;;2.40;99.90;;;;;;4955798;28;20049;-78
2023/12/29 01:04:31;;;;;;;105.30;40.08;;;1.90;99.90;;;;;;4971218;28;20046;-78
2023/12/29 01:07:01;;;;;;;110.40;40.28;;;2.80;99.90;;;;;;4967139;28;20058;-78
2023/12/29 01:09:31;;;;;;;102.43;38.20;;;2.70;99.90;;;;;;4984148;28;20141;-77
2023/12/29 01:12:01;;;;;;;100.03;38.80;;;1.50;99.90;;;;;;4969517;28;21885;-78
2023/12/29 01:14:30;;;;;;;90.03;36.30;;;1.50;99.90;;;;;;4970158;28;20722;-78
2023/12/29 01:17:00;;;;;;;96.50;36.90;;;1.40;99.90;;;;;;4977296;28;20050;-78
2023/12/29 01:19:29;;;;;;;84.15;36.00;;;1.40;99.90;;;;;;4979807;28;20110;-78
2023/12/29 01:21:58;;;;;;;91.57;37.10;;;1.50;99.90;;;;;;4987820;28;20046;-78
2023/12/29 01:24:27;;;;;;;97.88;36.80;;;1.40;99.90;;;;;;4973945;28;20041;-78
2023/12/29 01:27:11;;;;;;;92.88;36.17;;;1.50;99.90;;;;;;4988889;28;20049;-78
2023/12/29 01:29:40;;;;;;;95.57;36.80;;;1.50;99.90;;;;;;4979634;28;20085;-78
2023/12/29 01:32:10;;;;;;;84.85;34.22;;;1.50;99.90;;;;;;4965598;28;21869;-78
2023/12/29 01:34:39;;;;;;;88.97;32.33;;;1.50;99.90;;;;;;4969379;28;20054;-78
2023/12/29 01:37:11;;;;;;;88.32;34.53;;;1.50;99.90;;;;;;4977941;28;20065;-77
2023/12/29 01:39:40;;;;;;;96.50;36.80;;;1.70;99.90;;;;;;4994442;28;20141;-78
2023/12/29 01:42:12;;;;;;;98.28;36.17;;;2.00;99.90;;;;;;4962086;28;20133;-77
2023/12/29 01:44:41;;;;;;;91.05;34.15;;;2.90;99.90;;;;;;4972159;28;20055;-78
2023/12/29 01:47:15;;;;;;;92.38;32.33;;;1.50;99.90;;;;;;4991010;28;20061;-78
2023/12/29 01:49:46;;;;;;;94.30;34.17;;;2.20;99.90;;;;;;4987769;28;20149;-77
2023/12/29 01:52:17;;;;;;;80.45;32.40;;;1.60;99.90;;;;;;4975176;28;20161;-78
2023/12/29 01:54:48;;;;;;;84.55;33.75;;;1.50;99.90;;;;;;5006157;28;20042;-78
2023/12/29 01:57:19;;;;;;;105.30;37.90;;;1.70;99.90;;;;;;4952556;28;20051;-78
2023/12/29 01:59:48;;;;;;;109.00;40.60;;;1.80;99.90;;;;;;5000216;28;20110;-78
2023/12/29 02:02:18;;;;;;;103.15;40.20;;;2.30;99.90;;;;;;4967828;28;20078;-78
2023/12/29 02:04:48;;;;;;;99.22;37.22;;;1.50;99.90;;;;;;4967464;28;20046;-78
2023/12/29 02:07:18;;;;;;;82.20;32.30;;;1.80;99.90;;;;;;4986643;28;20060;-78
2023/12/29 02:09:47;;;;;;;81.00;33.50;;;2.00;99.90;;;;;;4973344;28;22334;-79
2023/12/29 02:12:19;;;;;;;86.63;34.55;;;1.70;99.90;;;;;;4984040;28;20046;-78
2023/12/29 02:14:48;;;;;;;93.85;36.30;;;1.50;99.90;;;;;;4960691;28;20082;-78
2023/12/29 02:17:26;;;;;;;81.97;33.22;;;1.50;99.90;;;;;;4979444;28;20044;-77
2023/12/29 02:19:56;;;;;;;70.03;29.35;;;1.50;99.90;;;;;;4986139;28;20097;-78
2023/12/29 02:22:27;;;;;;;68.95;30.35;;;1.70;99.90;;;;;;4967818;28;20128;-77
2023/12/29 02:24:57;;;;;;;65.20;28.27;;;1.40;99.90;;;;;;5003839;28;21892;-78
2023/12/29 02:27:37;;;;;;;73.70;30.38;;;1.40;99.90;;;;;;4992053;28;20062;-78
2023/12/29 02:30:20;;;;;;;65.28;28.17;;;1.50;99.90;;;;;;4984172;28;20058;-78
2023/12/29 02:32:50;;;;;;;71.68;31.17;;;1.50;99.90;;;;;;4976494;28;20035;-77
2023/12/29 02:35:25;;;;;;;64.95;28.70;;;2.20;99.90;;;;;;4965143;28;20396;-77
2023/12/29 02:38:00;;;;;;;78.50;31.77;;;1.30;99.90;;;;;;4981515;28;20051;-78
2023/12/29 02:40:36;;;;;;;68.85;28.45;;;1.40;99.90;;;;;;4982001;28;20050;-78
2023/12/29 02:43:05;;;;;;;71.05;28.13;;;1.50;99.90;;;;;;4974106;28;20150;-78
2023/12/29 02:45:34;;;;;;;58.28;26.15;;;1.40;99.90;;;;;;4984516;28;20081;-78
2023/12/29 02:48:04;;;;;;;61.95;28.55;;;1.60;99.90;;;;;;4969537;28;20065;-77
2023/12/29 02:50:34;;;;;;;60.92;26.40;;;1.50;99.90;;;;;;4990620;28;20085;-78
2023/12/29 02:53:05;;;;;;;70.13;28.77;;;2.70;99.90;;;;;;4962270;28;20051;-78
2023/12/29 02:55:35;;;;;;;70.22;27.55;;;1.50;99.90;;;;;;4962279;28;20147;-78
2023/12/29 02:58:05;;;;;;;63.20;25.60;;;1.50;99.90;;;;;;4965698;28;20046;-78
2023/12/29 03:00:35;;;;;;;81.15;29.73;;;1.50;99.90;;;;;;4958747;28;20054;-77
2023/12/29 03:03:05;;;;;;;70.05;28.70;;;1.50;99.90;;;;;;4979259;28;20050;-79
2023/12/29 03:05:34;;;;;;;66.93;26.45;;;1.00;99.90;;;;;;4967503;28;20054;-78
2023/12/29 03:08:05;;;;;;;63.92;27.35;;;1.50;99.90;;;;;;4985975;28;20053;-78
2023/12/29 03:10:38;;;;;;;65.35;27.08;;;1.50;99.90;;;;;;4983610;28;20164;-78
2023/12/29 03:13:09;;;;;;;;;;;1.50;99.90;;;;;;4963793;28;22124;-78
2023/12/29 03:15:40;;;;;;;53.13;23.42;;;1.50;99.90;;;;;;4966515;28;19926;-78
2023/12/29 03:18:11;;;;;;;61.42;24.55;;;1.50;99.90;;;;;;5000255;28;20043;-78
2023/12/29 03:21:02;;;;;;;65.22;26.13;;;1.50;99.90;;;;;;4980468;28;20861;-78
2023/12/29 03:23:31;;;;;;;59.40;24.60;;;3.30;99.90;;;;;;4954706;28;20054;-78
2023/12/29 03:26:02;;;;;;;64.82;27.00;;;1.40;99.90;;;;;;4965397;28;20102;-79
2023/12/29 03:28:30;;;;;;;55.58;26.02;;;1.50;99.90;;;;;;4963790;28;20050;-78
2023/12/29 03:31:00;;;;;;;54.67;22.88;;;1.40;99.90;;;;;;4967161;28;20495;-78
2023/12/29 03:33:31;;;;;;;61.38;24.65;;;0.70;99.90;;;;;;4952780;28;20199;-78
2023/12/29 03:36:01;;;;;;;65.03;27.27;;;1.70;99.90;;;;;;4964792;28;20057;-77
2023/12/29 03:38:32;;;;;;;54.78;25.48;;;1.50;99.90;;;;;;4955311;28;20109;-78
2023/12/29 03:41:03;;;;;;;57.47;25.33;;;1.50;99.90;;;;;;4964864;28;20050;-79
2023/12/29 03:43:32;;;;;;;65.90;25.23;;;0.70;99.90;;;;;;4967803;28;20062;-78
2023/12/29 03:46:01;;;;;;;60.00;26.25;;;2.40;99.90;;;;;;4967792;28;20128;-78
2023/12/29 03:48:30;;;;;;;59.85;26.40;;;1.40;99.90;;;;;;4968318;28;20038;-78
2023/12/29 03:50:59;;;;;;;61.65;25.65;;;1.40;99.90;;;;;;4963707;28;20042;-78
2023/12/29 03:53:28;;;;;;;59.28;24.92;;;2.30;99.90;;;;;;4973833;28;20055;-79
2023/12/29 03:55:57;;;;;;;58.92;26.13;;;1.30;99.90;;;;;;4968255;28;20084;-78
2023/12/29 03:58:27;;;;;;;55.83;23.75;;;1.30;99.90;;;;;;4985759;28;20088;-79
2023/12/29 04:00:55;;;;;;;55.85;24.35;;;1.40;99.90;;;;;;4981862;28;20045;-78
2023/12/29 04:03:24;;;;;;;59.25;24.90;;;1.50;99.90;;;;;;4980104;28;20110;-78
2023/12/29 04:05:56;;;;;;;59.35;24.80;;;1.40;99.90;;;;;;4978639;28;20030;-78
2023/12/29 04:08:25;;;;;;;72.45;29.45;;;1.40;99.90;;;;;;4983148;28;20054;-78
2023/12/29 04:10:54;;;;;;;65.35;27.35;;;1.30;99.90;;;;;;4984915;28;20052;-79
2023/12/29 04:13:23;;;;;;;59.08;25.83;;;1.30;99.90;;;;;;4974950;28;20148;-78
2023/12/29 04:15:56;;;;;;;53.08;24.35;;;0.60;99.90;;;;;;4985752;28;20065;-77
2023/12/29 04:18:28;;;;;;;57.92;24.58;;;1.70;99.90;;;;;;4986120;28;20034;-78
2023/12/29 04:20:57;;;;;;;59.60;24.02;;;1.30;99.90;;;;;;4986680;28;22928;-78
2023/12/29 04:23:26;;;;;;;58.38;24.23;;;1.20;99.90;;;;;;4974518;28;20070;-78
2023/12/29 04:25:55;;;;;;;51.72;21.05;;;1.00;99.90;;;;;;4968908;28;20057;-78
2023/12/29 04:28:24;;;;;;;55.50;23.85;;;1.20;99.90;;;;;;4986238;28;20053;-78
2023/12/29 04:30:56;;;;;;;56.03;23.15;;;1.20;99.90;;;;;;4976120;28;20797;-78
2023/12/29 04:33:25;;;;;;;54.50;23.67;;;1.20;99.90;;;;;;4978110;28;20054;-78
2023/12/29 04:35:54;;;;;;;52.05;22.23;;;1.20;99.90;;;;;;4965783;28;20047;-78
2023/12/29 04:38:22;;;;;;;52.95;22.02;;;0.30;99.90;;;;;;4978287;28;20065;-78
2023/12/29 04:40:51;;;;;;;45.67;22.20;;;1.30;99.90;;;;;;4983345;28;20058;-78
2023/12/29 04:43:20;;;;;;;60.60;24.30;;;1.20;99.90;;;;;;4996801;28;20058;-78
2023/12/29 04:45:49;;;;;;;53.63;22.38;;;0.10;99.90;;;;;;4985615;28;20046;-79
2023/12/29 04:48:20;;;;;;;50.03;22.40;;;2.10;99.90;;;;;;4971801;28;20062;-78
2023/12/29 04:50:49;;;;;;;51.72;21.85;;;1.20;99.90;;;;;;5012610;28;20061;-79
2023/12/29 04:53:17;;;;;;;49.40;21.27;;;1.40;99.90;;;;;;4996739;28;20057;-78
2023/12/29 04:55:46;;;;;;;51.70;21.80;;;1.30;99.90;;;;;;4972600;28;20038;-78
2023/12/29 04:58:15;;;;;;;53.30;21.80;;;1.20;99.90;;;;;;4977219;28;20088;-79
2023/12/29 05:00:44;;;;;;;54.63;22.80;;;1.50;99.90;;;;;;5002790;28;20164;-78
2023/12/29 05:03:13;;;;;;;54.85;23.42;;;1.30;99.90;;;;;;4986294;28;20617;-78
2023/12/29 05:05:43;;;;;;;52.53;23.25;;;2.20;99.90;;;;;;5001746;28;20061;-78
2023/12/29 05:08:14;;;;;;;50.95;22.77;;;1.30;99.90;;;;;;4981253;28;20114;-78
2023/12/29 05:10:43;;;;;;;52.15;22.90;;;1.30;99.90;;;;;;4975624;28;20172;-79
2023/12/29 05:13:12;;;;;;;55.00;22.70;;;1.30;99.90;;;;;;4986821;28;20057;-79
2023/12/29 05:15:41;;;;;;;48.08;21.48;;;1.30;99.90;;;;;;5002875;28;20038;-78
2023/12/29 05:18:10;;;;;;;49.65;21.23;;;1.30;99.90;;;;;;4975646;28;20049;-78
2023/12/29 05:20:39;;;;;;;52.35;21.08;;;1.30;99.90;;;;;;4985454;28;20050;-78
2023/12/29 05:23:10;;;;;;;54.42;22.77;;;1.50;99.90;;;;;;4987655;28;20038;-79
2023/12/29 05:25:40;;;;;;;54.28;22.45;;;2.00;99.90;;;;;;4973440;28;20050;-79
2023/12/29 05:28:09;;;;;;;52.83;21.92;;;1.60;99.90;;;;;;4993425;28;20039;-77
2023/12/29 05:30:38;;;;;;;51.65;21.73;;;1.40;99.90;;;;;;4967733;28;20058;-78
2023/12/29 05:33:07;;;;;;;57.72;24.98;;;1.30;99.90;;;;;;4988425;28;20124;-78
2023/12/29 05:35:36;;;;;;;53.88;22.20;;;1.10;99.90;;;;;;4974435;28;20177;-79
2023/12/29 05:38:05;;;;;;;57.30;23.45;;;1.00;99.90;;;;;;4984434;28;20062;-78
2023/12/29 05:40:35;;;;;;;55.10;22.48;;;1.30;99.90;;;;;;4987618;28;20042;-78
2023/12/29 05:43:04;;;;;;;64.30;25.52;;;1.30;99.90;;;;;;4994551;28;22074;-79
2023/12/29 05:45:33;;;;;;;58.20;23.33;;;1.10;99.90;;;;;;4978318;28;20054;-79
2023/12/29 05:48:03;;;;;;;53.83;24.33;;;1.20;99.90;;;;;;4986569;28;20057;-78
2023/12/29 05:50:32;;;;;;;57.70;24.35;;;-0.20;99.90;;;;;;4991673;28;21994;-78
2023/12/29 05:53:01;;;;;;;58.80;24.65;;;1.30;99.90;;;;;;5007879;28;20114;-78
2023/12/29 05:55:30;;;;;;;62.13;27.27;;;1.20;99.90;;;;;;5003545;28;20074;-78
2023/12/29 05:58:01;;;;;;;63.53;27.40;;;1.20;99.90;;;;;;4990972;28;20042;-78
2023/12/29 06:00:30;;;;;;;76.32;30.98;;;1.80;99.90;;;;;;4974876;28;20054;-78
2023/12/29 06:02:59;;;;;;;80.90;31.92;;;1.30;99.90;;;;;;4972647;28;20058;-78
2023/12/29 06:05:29;;;;;;;80.80;32.53;;;2.00;99.90;;;;;;4990075;28;20195;-79
2023/12/29 06:07:58;;;;;;;89.75;35.28;;;1.30;99.90;;;;;;4971068;28;20061;-78
2023/12/29 06:10:27;;;;;;;80.30;30.92;;;1.10;99.90;;;;;;4985433;28;20160;-78
2023/12/29 06:12:56;;;;;;;74.57;29.58;;;1.50;99.90;;;;;;4974256;28;21894;-79
2023/12/29 06:15:26;;;;;;;68.50;29.30;;;1.70;99.90;;;;;;4989046;28;20034;-78
2023/12/29 06:17:55;;;;;;;72.70;29.05;;;1.90;99.90;;;;;;4987297;28;20056;-78
2023/12/29 06:20:24;;;;;;;70.95;25.98;;;1.10;99.90;;;;;;4990121;28;20053;-79
2023/12/29 06:22:53;;;;;;;68.75;26.27;;;2.20;99.90;;;;;;4985130;28;20065;-78
2023/12/29 06:25:22;;;;;;;64.53;28.48;;;1.10;99.90;;;;;;4985117;28;20054;-78
2023/12/29 06:27:51;;;;;;;67.57;27.77;;;1.10;99.90;;;;;;4952828;28;21984;-78
2023/12/29 06:30:20;;;;;;;60.70;25.55;;;1.20;99.90;;;;;;4950504;28;20077;-78
2023/12/29 06:32:51;;;;;;;57.85;25.88;;;1.10;99.90;;;;;;4967642;28;20059;-78
2023/12/29 06:35:21;;;;;;;66.88;29.50;;;0.30;99.90;;;;;;4969144;28;20078;-78
2023/12/29 06:37:50;;;;;;;83.78;31.33;;;1.10;99.90;;;;;;4951571;28;20062;-78
2023/12/29 06:40:18;;;;;;;66.18;27.60;;;2.00;99.90;;;;;;4968850;28;20030;-79
2023/12/29 06:42:48;;;;;;;126.00;47.15;;;1.10;99.90;;;;;;4969521;28;20595;-79
2023/12/29 06:45:17;;;;;;;112.63;41.20;;;1.00;99.90;;;;;;4950675;28;20039;-78
2023/12/29 06:47:46;;;;;;;244.15;61.97;;;1.10;99.90;;;;;;4974516;28;20081;-78
2023/12/29 06:50:17;;;;;;;453.80;117.03;;;1.10;99.90;;;;;;4951353;28;20149;-78
2023/12/29 06:52:46;;;;;;;164.98;52.10;;;1.10;99.90;;;;;;4958685;28;20055;-78
2023/12/29 06:55:15;;;;;;;168.05;47.10;;;1.10;99.90;;;;;;4949923;28;20035;-79
2023/12/29 06:57:44;;;;;;;220.52;56.15;;;1.10;99.90;;;;;;4950182;28;22008;-79
2023/12/29 07:00:14;;;;;;;231.02;60.70;;;1.10;99.90;;;;;;4969430;28;20055;-78
2023/12/29 07:02:48;;;;;;;152.48;47.80;;;1.10;99.90;;;;;;5001224;28;20074;-78
2023/12/29 07:06:11;;;;;;;83.88;31.05;;;1.10;99.90;;;;;;5002203;28;20078;-78
2023/12/29 07:13:37;;;;;;;72.10;27.73;;;1.00;99.90;;;;;;4881906;29;20057;-79
2023/12/29 07:47:33;;;;;;;295.48;84.10;;;1.20;99.90;;;;;;5587960;23;20052;-79
2023/12/29 07:50:02;;;;;;;112.88;45.17;;;1.20;99.90;;;;;;5043025;28;20052;-78
2023/12/29 07:52:31;;;;;;;149.23;54.30;;;1.20;99.90;;;;;;5036963;28;20053;-78
2023/12/29 07:55:00;;;;;;;122.20;43.15;;;1.30;99.90;;;;;;5042914;28;20049;-78
2023/12/29 07:57:29;;;;;;;105.07;40.25;;;0.80;99.90;;;;;;5035553;28;20068;-78
2023/12/29 07:59:57;;;;;;;95.30;36.45;;;1.20;99.90;;;;;;5024063;28;20045;-78
2023/12/29 08:02:27;;;;;;;93.47;35.22;;;1.50;99.90;;;;;;5042038;28;20533;-78
2023/12/29 08:04:57;;;;;;;112.70;41.55;;;1.30;99.90;;;;;;5031087;28;20056;-78
2023/12/29 08:07:26;;;;;;;97.15;39.92;;;1.20;99.90;;;;;;5032830;28;20048;-78
2023/12/29 08:09:55;;;;;;;138.13;51.08;;;1.20;99.90;;;;;;5050859;28;20104;-79
2023/12/29 08:12:24;;;;;;;88.40;39.35;;;1.30;99.90;;;;;;5038959;28;20469;-79
2023/12/29 08:15:00;;;;;;;96.72;36.17;;;1.30;99.90;;;;;;5054700;28;20467;-78
2023/12/29 08:17:29;;;;;;;104.45;39.33;;;1.40;99.90;;;;;;5041065;28;20063;-79
2023/12/29 08:19:59;;;;;;;135.23;47.25;;;1.30;99.90;;;;;;5047775;28;20060;-79
2023/12/29 08:22:32;;;;;;;119.82;45.13;;;2.40;99.90;;;;;;5051653;28;20056;-78
2023/12/29 08:25:04;;;;;;;89.32;34.22;;;1.40;99.90;;;;;;5063843;28;20079;-78
2023/12/29 08:27:33;;;;;;;70.30;28.92;;;1.40;99.90;;;;;;5002524;28;20119;-78
2023/12/29 08:30:01;;;;;;;105.03;36.30;;;1.40;99.90;;;;;;4981695;28;20148;-78
2023/12/29 08:32:34;;;;;;;102.50;36.10;;;1.50;99.90;;;;;;5000872;28;20053;-78
2023/12/29 08:35:06;;;;;;;103.60;37.22;;;0.70;99.90;;;;;;4973912;28;20056;-78
2023/12/29 08:37:34;;;;;;;82.40;32.63;;;1.60;99.90;;;;;;4990307;28;20054;-78
2023/12/29 08:40:04;;;;;;;80.93;31.50;;;1.70;99.90;;;;;;4993697;28;20049;-78
2023/12/29 08:42:32;;;;;;;74.15;30.27;;;1.70;99.90;;;;;;4984474;28;20065;-78
2023/12/29 08:45:03;;;;;;;83.63;34.88;;;1.80;99.90;;;;;;4968755;28;20050;-78
2023/12/29 08:47:37;;;;;;;84.30;35.25;;;2.00;99.90;;;;;;4972232;28;20057;-78
2023/12/29 08:50:10;;;;;;;90.55;38.33;;;1.90;99.90;;;;;;4977291;28;22290;-78
2023/12/29 08:52:39;;;;;;;96.88;39.92;;;1.90;99.90;;;;;;5000358;28;20165;-78
2023/12/29 08:55:09;;;;;;;178.82;71.25;;;2.00;99.90;;;;;;4981639;28;20050;-78
2023/12/29 08:57:39;;;;;;;121.00;53.83;;;2.00;99.90;;;;;;4984932;28;20133;-77
2023/12/29 09:00:10;;;;;;;124.90;59.40;;;2.10;99.90;;;;;;5035736;28;20048;-78
2023/12/29 09:02:38;;;;;;;125.88;54.00;;;2.10;99.90;;;;;;5025371;28;20431;-77
2023/12/29 09:05:09;;;;;;;200.38;82.57;;;2.20;99.90;;;;;;5019751;28;20164;-78
2023/12/29 09:07:37;;;;;;;166.27;69.72;;;2.20;99.90;;;;;;5025183;28;20057;-77
2023/12/29 09:10:08;;;;;;;232.18;84.40;;;2.20;99.90;;;;;;5031284;28;20053;-78
2023/12/29 09:12:37;;;;;;;225.50;85.03;;;2.30;99.90;;;;;;5014538;28;20190;-78
2023/12/29 09:15:06;;;;;;;189.98;71.95;;;2.40;99.90;;;;;;5030860;28;20060;-78
2023/12/29 09:17:35;;;;;;;126.82;50.97;;;2.40;99.90;;;;;;5032608;28;20296;-78
2023/12/29 09:20:04;;;;;;;109.43;44.40;;;2.50;99.90;;;;;;5012699;28;20080;-78
2023/12/29 09:22:40;;;;;;;101.78;40.25;;;2.50;99.90;;;;;;5037383;28;20057;-78
2023/12/29 09:25:08;;;;;;;77.75;35.67;;;2.60;99.90;;;;;;5033898;28;20703;-77
2023/12/29 09:27:37;;;;;;;74.22;31.75;;;2.70;99.90;;;;;;5010610;28;20052;-77
2023/12/29 09:30:07;;;;;;;75.13;31.48;;;2.80;99.90;;;;;;5004719;28;20533;-78
2023/12/29 09:32:36;;;;;;;72.72;30.35;;;2.90;99.90;;;;;;5028751;28;20688;-77
2023/12/29 09:35:05;;;;;;;71.35;30.92;;;3.00;99.90;;;;;;5033023;28;20049;-78
2023/12/29 09:37:33;;;;;;;65.55;29.27;;;3.10;99.90;;;;;;5027349;28;20090;-78
2023/12/29 09:40:03;;;;;;;67.30;30.08;;;3.20;99.90;;;;;;5016419;28;20048;-78
2023/12/29 09:42:34;;;;;;;65.65;28.52;;;3.30;99.90;;;;;;5016295;28;20060;-78
2023/12/29 09:45:07;;;;;;;61.03;25.88;;;3.50;99.90;;;;;;5045364;28;20104;-78
2023/12/29 09:47:39;;;;;;;64.03;28.10;;;3.60;99.90;;;;;;5023696;28;20057;-78
2023/12/29 09:50:11;;;;;;;82.23;34.10;;;3.70;99.90;;;;;;5052513;28;20044;-78
2023/12/29 09:52:41;;;;;;;64.70;28.58;;;3.80;99.90;;;;;;5051514;28;20315;-77
2023/12/29 09:55:12;;;;;;;61.00;27.17;;;3.80;99.90;;;;;;5034889;28;20071;-77
2023/12/29 09:57:42;;;;;;;70.80;32.38;;;3.80;99.90;;;;;;5016395;28;20064;-78
2023/12/29 10:00:13;;;;;;;77.93;36.08;;;3.90;99.90;;;;;;5016757;28;20050;-78
2023/12/29 10:02:42;;;;;;;72.65;34.10;;;4.00;99.90;;;;;;5035385;28;20077;-77
2023/12/29 10:05:10;;;;;;;67.40;31.33;;;4.10;99.90;;;;;;5035262;28;20056;-77
2023/12/29 10:07:40;;;;;;;66.18;29.15;;;4.10;99.90;;;;;;5016443;28;22515;-78
2023/12/29 10:10:15;;;;;;;73.80;33.05;;;4.20;99.90;;;;;;5012753;28;22550;-79
2023/12/29 10:12:48;;;;;;;66.65;30.52;;;4.20;99.90;;;;;;5032968;28;20048;-78
2023/12/29 10:15:22;;;;;;;77.82;35.40;;;4.30;99.90;;;;;;5013705;28;20045;-79
2023/12/29 10:17:57;;;;;;;80.38;35.58;;;4.30;99.90;;;;;;5016738;28;20064;-79
2023/12/29 10:20:34;;;;;;;71.93;32.33;;;4.40;99.90;;;;;;5027327;28;20052;-78
2023/12/29 10:23:09;;;;;;;86.85;40.30;;;4.50;99.90;;;;;;5032357;28;20171;-79
2023/12/29 10:25:37;;;;;;;74.45;32.30;;;4.50;99.90;;;;;;5010811;28;20584;-78
2023/12/29 10:28:09;;;;;;;82.20;40.47;;;4.50;99.90;;;;;;5036523;28;22629;-78
2023/12/29 10:30:38;;;;;;;77.65;38.05;;;4.50;99.90;;;;;;5013124;28;20402;-78
2023/12/29 10:33:06;;;;;;;64.90;31.95;;;4.70;99.90;;;;;;5033170;28;20206;-79
2023/12/29 10:35:37;;;;;;;64.68;32.33;;;4.80;99.90;;;;;;5009555;28;20056;-80
2023/12/29 10:38:10;;;;;;;48.88;24.25;;;4.90;99.90;;;;;;5028794;28;20088;-79
2023/12/29 10:40:39;;;;;;;46.60;22.45;;;5.00;99.90;;;;;;5018644;28;20044;-78
2023/12/29 10:43:10;;;;;;;44.78;22.65;;;5.10;99.90;;;;;;5016668;28;20059;-78
2023/12/29 10:45:38;;;;;;;41.83;20.70;;;5.10;99.90;;;;;;5031930;28;20072;-81
2023/12/29 10:48:07;;;;;;;48.80;23.10;;;5.20;99.90;;;;;;5018304;28;20091;-83
2023/12/29 10:50:44;;;;;;;59.58;29.13;;;5.30;99.90;;;;;;5027213;28;20048;-82
2023/12/29 10:53:14;;;;;;;44.03;20.83;;;5.30;99.90;;;;;;5027309;28;20052;-80
2023/12/29 10:55:42;;;;;;;46.25;23.65;;;5.40;99.90;;;;;;5009241;28;20399;-80
2023/12/29 10:58:12;;;;;;;40.25;20.42;;;5.50;99.90;;;;;;5023537;28;20061;-81
2023/12/29 11:00:41;;;;;;;35.20;18.55;;;5.50;99.90;;;;;;5028273;28;20049;-83
2023/12/29 11:03:17;;;;;;;35.13;17.58;;;5.60;99.90;;;;;;5025693;28;20056;-81
2023/12/29 11:05:45;;;;;;;39.55;19.90;;;5.60;99.90;;;;;;5034479;28;20040;-82
2023/12/29 11:08:18;;;;;;;44.70;23.48;;;5.50;99.90;;;;;;5009684;28;22699;-80
2023/12/29 11:10:48;;;;;;;35.95;17.92;;;5.50;99.90;;;;;;5025558;28;20049;-83
2023/12/29 11:13:19;;;;;;;43.65;21.70;;;5.60;99.90;;;;;;5027051;28;20059;-82
2023/12/29 11:15:48;;;;;;;36.05;17.52;;;5.60;99.90;;;;;;5011286;28;20044;-80
2023/12/29 11:18:18;;;;;;;36.70;18.35;;;5.70;99.90;;;;;;5024408;28;20065;-80
2023/12/29 11:20:47;;;;;;;37.60;18.40;;;5.80;99.90;;;;;;5016913;28;22495;-82
2023/12/29 11:23:16;;;;;;;34.97;18.02;;;5.80;99.90;;;;;;5041508;28;20159;-80
2023/12/29 11:25:46;;;;;;;42.38;21.10;;;5.80;99.90;;;;;;5006915;28;20057;-79
2023/12/29 11:28:15;;;;;;;40.28;19.35;;;5.90;99.90;;;;;;5024498;28;20060;-81
2023/12/29 11:30:45;;;;;;;41.17;19.58;;;6.00;99.90;;;;;;5026173;28;20048;-80
2023/12/29 11:33:19;;;;;;;34.83;17.80;;;6.00;99.90;;;;;;5013077;28;20053;-82
2023/12/29 11:35:54;;;;;;;48.20;24.67;;;6.00;99.90;;;;;;4998029;28;20052;-81
2023/12/29 11:38:41;;;;;;;41.38;20.63;;;6.10;99.90;;;;;;5020130;28;20049;-80
2023/12/29 11:41:16;;;;;;;38.45;18.65;;;6.20;99.90;;;;;;5005607;28;22501;-81
2023/12/29 11:43:46;;;;;;;34.20;17.60;;;6.30;99.90;;;;;;5023805;28;20054;-81
2023/12/29 11:46:37;;;;;;;32.60;16.67;;;6.30;99.90;;;;;;5016067;28;20491;-82
2023/12/29 11:49:06;;;;;;;33.40;18.00;;;6.40;99.90;;;;;;5025250;28;20902;-80
2023/12/29 11:51:36;;;;;;;32.80;18.05;;;6.40;99.90;;;;;;5007532;28;20478;-80
2023/12/29 11:54:06;;;;;;;34.17;18.38;;;6.50;99.90;;;;;;5024015;28;20041;-81
2023/12/29 11:56:40;;;;;;;37.50;19.23;;;6.50;99.90;;;;;;5019290;28;20051;-81
2023/12/29 11:59:19;;;;;;;36.65;18.67;;;6.50;99.90;;;;;;5028728;28;20053;-81
2023/12/29 12:01:52;;;;;;;34.75;17.98;;;6.50;99.90;;;;;;5006663;28;20052;-81
2023/12/29 12:04:45;;;;;;;;;;;6.40;99.90;;;;;;5024129;28;20122;-79
2023/12/29 12:07:18;;;;;;;35.05;18.00;;;6.40;99.90;;;;;;5007803;28;19928;-82
2023/12/29 12:09:49;;;;;;;36.10;20.00;;;6.40;99.90;;;;;;5035455;28;20048;-80
2023/12/29 12:12:39;;;;;;;42.22;21.08;;;6.50;99.90;;;;;;5003778;28;20068;-81
2023/12/29 12:15:34;;;;;;;40.65;20.80;;;6.60;99.90;;;;;;5010230;28;20191;-81
2023/12/29 12:18:07;;;;;;;37.17;20.15;;;6.70;99.90;;;;;;5024267;28;20071;-81
2023/12/29 12:20:36;;;;;;;;;;;6.70;99.90;;;;;;5024694;28;20080;-81
2023/12/29 12:23:11;;;;;;;39.13;19.33;;;6.70;99.90;;;;;;5025973;28;19928;-82
2023/12/29 12:25:40;;;;;;;33.60;18.30;;;6.70;99.90;;;;;;5016894;28;20190;-82
2023/12/29 12:28:10;;;;;;;36.70;19.65;;;6.80;99.90;;;;;;5024680;28;20043;-80
2023/12/29 12:30:39;;;;;;;39.05;18.67;;;6.70;99.90;;;;;;5016396;28;20057;-80
2023/12/29 12:33:11;;;;;;;34.78;18.55;;;6.80;99.90;;;;;;5007688;28;20060;-80
2023/12/29 12:35:40;;;;;;;34.78;18.85;;;6.70;99.90;;;;;;5007080;28;20075;-81
2023/12/29 12:38:09;;;;;;;36.17;19.05;;;6.70;99.90;;;;;;5026562;28;20072;-82
2023/12/29 12:40:38;;;;;;;34.75;18.67;;;6.80;99.90;;;;;;5015875;28;20063;-82
2023/12/29 12:43:07;;;;;;;35.53;20.20;;;6.80;99.90;;;;;;5023260;28;20041;-79
2023/12/29 12:45:42;;;;;;;36.40;20.08;;;6.90;99.90;;;;;;5025508;28;20173;-82
2023/12/29 12:48:20;;;;;;;38.22;19.23;;;6.80;99.90;;;;;;5008200;28;22450;-81
2023/12/29 12:50:50;;;;;;;37.00;18.40;;;6.80;99.90;;;;;;5016987;28;20144;-81
2023/12/29 12:53:20;;;;;;;37.17;18.73;;;6.80;99.90;;;;;;5022180;28;22566;-82
2023/12/29 12:55:50;;;;;;;30.40;16.90;;;6.80;99.90;;;;;;5011255;28;20137;-80
2023/12/29 12:58:20;;;;;;;33.38;17.67;;;6.90;99.90;;;;;;5007629;28;20057;-81
2023/12/29 13:00:50;;;;;;;35.83;17.33;;;6.90;99.90;;;;;;5026483;28;20131;-80
2023/12/29 13:03:23;;;;;;;28.52;15.52;;;6.90;99.90;;;;;;5006867;28;20064;-79
2023/12/29 13:05:53;;;;;;;30.95;15.82;;;6.90;99.90;;;;;;5022959;28;20508;-80
2023/12/29 13:08:21;;;;;;;31.98;16.73;;;6.90;99.90;;;;;;5012212;28;20056;-80
2023/12/29 13:11:04;;;;;;;35.90;17.98;;;6.90;99.90;;;;;;5029308;28;20052;-80
2023/12/29 13:13:39;;;;;;;31.13;16.02;;;7.00;99.90;;;;;;5020074;28;20055;-80
2023/12/29 13:16:08;;;;;;;31.92;16.23;;;7.10;99.90;;;;;;5021963;28;20053;-81
2023/12/29 13:18:38;;;;;;;34.10;16.88;;;7.10;99.90;;;;;;5027027;28;20071;-80
2023/12/29 13:21:09;;;;;;;27.92;15.35;;;7.20;99.90;;;;;;5022701;28;20071;-83
2023/12/29 13:23:37;;;;;;;29.65;15.95;;;7.20;99.90;;;;;;5020576;28;20109;-81
2023/12/29 13:26:08;;;;;;;31.77;17.13;;;7.20;99.90;;;;;;5009341;28;20863;-78
2023/12/29 13:28:37;;;;;;;31.92;17.17;;;7.30;99.90;;;;;;5027629;28;20056;-81
2023/12/29 13:31:10;;;;;;;32.80;18.33;;;7.20;99.90;;;;;;5019554;28;20053;-82